sensor_id;sensor_type;location;lat;lon;timestamp;P1;durP1;ratioP1;P2;durP2;ratioP2
73276;SDS011;61501;43.316;5.372;2022-07-29T00:00:43;8.00;;;4.20;;
73276;SDS011;61501;43.316;5.372;2022-07-29T00:03:10;12.43;;;4.03;;
73276;SDS011;61501;43.316;5.372;2022-07-29T00:05:39;8.23;;;4.10;;
73276;SDS011;61501;43.316;5.372;2022-07-29T00:08:06;9.23;;;4.38;;
73276;SDS011;61501;43.316;5.372;2022-07-29T00:10:34;11.57;;;4.22;;
73276;SDS011;61501;43.316;5.372;2022-07-29T00:13:00;8.10;;;4.28;;
73276;SDS011;61501;43.316;5.372;2022-07-29T00:15:27;8.52;;;5.07;;
73276;SDS011;61501;43.316;5.372;2022-07-29T00:17:53;16.30;;;4.90;;
73276;SDS011;61501;43.316;5.372;2022-07-29T00:20:19;6.03;;;4.13;;
73276;SDS011;61501;43.316;5.372;2022-07-29T00:22:44;8.20;;;4.28;;
73276;SDS011;61501;43.316;5.372;2022-07-29T00:25:11;8.30;;;4.53;;
73276;SDS011;61501;43.316;5.372;2022-07-29T00:27:37;9.35;;;4.43;;
73276;SDS011;61501;43.316;5.372;2022-07-29T00:30:04;6.53;;;4.15;;
73276;SDS011;61501;43.316;5.372;2022-07-29T00:32:30;4.45;;;3.65;;
73276;SDS011;61501;43.316;5.372;2022-07-29T00:34:56;5.70;;;4.10;;
73276;SDS011;61501;43.316;5.372;2022-07-29T00:37:40;7.38;;;4.13;;
73276;SDS011;61501;43.316;5.372;2022-07-29T00:40:06;6.70;;;3.67;;
73276;SDS011;61501;43.316;5.372;2022-07-29T00:42:45;6.10;;;3.20;;
73276;SDS011;61501;43.316;5.372;2022-07-29T00:45:13;6.32;;;3.72;;
73276;SDS011;61501;43.316;5.372;2022-07-29T00:47:39;5.68;;;3.70;;
73276;SDS011;61501;43.316;5.372;2022-07-29T00:50:05;5.75;;;3.20;;
73276;SDS011;61501;43.316;5.372;2022-07-29T00:52:33;6.03;;;3.22;;
73276;SDS011;61501;43.316;5.372;2022-07-29T00:55:00;4.15;;;2.90;;
73276;SDS011;61501;43.316;5.372;2022-07-29T00:57:27;7.97;;;3.35;;
73276;SDS011;61501;43.316;5.372;2022-07-29T00:59:53;5.47;;;3.05;;
73276;SDS011;61501;43.316;5.372;2022-07-29T01:02:19;6.50;;;3.17;;
73276;SDS011;61501;43.316;5.372;2022-07-29T01:04:44;5.32;;;2.97;;
73276;SDS011;61501;43.316;5.372;2022-07-29T01:07:10;6.22;;;2.72;;
73276;SDS011;61501;43.316;5.372;2022-07-29T01:09:36;4.43;;;2.75;;
73276;SDS011;61501;43.316;5.372;2022-07-29T01:12:02;6.60;;;3.03;;
73276;SDS011;61501;43.316;5.372;2022-07-29T01:14:29;5.32;;;2.95;;
73276;SDS011;61501;43.316;5.372;2022-07-29T01:17:03;9.05;;;3.00;;
73276;SDS011;61501;43.316;5.372;2022-07-29T01:27:58;5.90;;;2.83;;
73276;SDS011;61501;43.316;5.372;2022-07-29T01:30:26;5.22;;;2.65;;
73276;SDS011;61501;43.316;5.372;2022-07-29T01:32:55;7.50;;;3.13;;
73276;SDS011;61501;43.316;5.372;2022-07-29T01:35:25;6.22;;;3.47;;
73276;SDS011;61501;43.316;5.372;2022-07-29T01:40:46;5.40;;;3.15;;
73276;SDS011;61501;43.316;5.372;2022-07-29T01:43:17;5.97;;;3.67;;
73276;SDS011;61501;43.316;5.372;2022-07-29T01:48:45;8.45;;;3.55;;
73276;SDS011;61501;43.316;5.372;2022-07-29T01:51:18;6.88;;;2.90;;
73276;SDS011;61501;43.316;5.372;2022-07-29T01:53:59;6.38;;;3.20;;
73276;SDS011;61501;43.316;5.372;2022-07-29T01:56:36;8.48;;;3.30;;
73276;SDS011;61501;43.316;5.372;2022-07-29T01:59:04;6.05;;;3.22;;
73276;SDS011;61501;43.316;5.372;2022-07-29T02:01:33;7.60;;;3.65;;
73276;SDS011;61501;43.316;5.372;2022-07-29T02:04:01;6.90;;;3.83;;
73276;SDS011;61501;43.316;5.372;2022-07-29T02:06:29;7.93;;;3.28;;
73276;SDS011;61501;43.316;5.372;2022-07-29T02:08:57;4.85;;;3.70;;
73276;SDS011;61501;43.316;5.372;2022-07-29T02:11:24;6.03;;;2.90;;
73276;SDS011;61501;43.316;5.372;2022-07-29T02:13:50;6.30;;;3.47;;
73276;SDS011;61501;43.316;5.372;2022-07-29T02:16:21;7.82;;;3.70;;
73276;SDS011;61501;43.316;5.372;2022-07-29T02:18:48;6.30;;;3.47;;
73276;SDS011;61501;43.316;5.372;2022-07-29T02:21:19;6.55;;;3.15;;
73276;SDS011;61501;43.316;5.372;2022-07-29T02:23:49;6.07;;;2.90;;
73276;SDS011;61501;43.316;5.372;2022-07-29T02:26:17;6.40;;;3.03;;
73276;SDS011;61501;43.316;5.372;2022-07-29T02:28:45;6.25;;;2.83;;
73276;SDS011;61501;43.316;5.372;2022-07-29T02:31:13;8.13;;;2.90;;
73276;SDS011;61501;43.316;5.372;2022-07-29T02:33:39;7.03;;;3.03;;
73276;SDS011;61501;43.316;5.372;2022-07-29T02:36:06;5.50;;;2.55;;
73276;SDS011;61501;43.316;5.372;2022-07-29T02:38:32;6.68;;;3.20;;
73276;SDS011;61501;43.316;5.372;2022-07-29T02:41:17;5.38;;;3.33;;
73276;SDS011;61501;43.316;5.372;2022-07-29T02:43:46;6.70;;;2.90;;
73276;SDS011;61501;43.316;5.372;2022-07-29T02:46:14;5.68;;;2.70;;
73276;SDS011;61501;43.316;5.372;2022-07-29T02:48:48;6.95;;;3.10;;
73276;SDS011;61501;43.316;5.372;2022-07-29T02:54:10;8.07;;;2.90;;
73276;SDS011;61501;43.316;5.372;2022-07-29T02:56:43;5.47;;;3.08;;
73276;SDS011;61501;43.316;5.372;2022-07-29T02:59:11;6.78;;;3.33;;
73276;SDS011;61501;43.316;5.372;2022-07-29T03:01:38;6.47;;;3.45;;
73276;SDS011;61501;43.316;5.372;2022-07-29T03:04:07;9.45;;;3.45;;
73276;SDS011;61501;43.316;5.372;2022-07-29T03:06:36;5.20;;;3.20;;
73276;SDS011;61501;43.316;5.372;2022-07-29T03:09:03;5.82;;;3.58;;
73276;SDS011;61501;43.316;5.372;2022-07-29T03:11:31;7.90;;;3.83;;
73276;SDS011;61501;43.316;5.372;2022-07-29T03:13:59;7.68;;;3.20;;
73276;SDS011;61501;43.316;5.372;2022-07-29T03:16:26;7.20;;;3.30;;
73276;SDS011;61501;43.316;5.372;2022-07-29T03:18:52;6.90;;;3.35;;
73276;SDS011;61501;43.316;5.372;2022-07-29T03:21:18;6.03;;;3.05;;
73276;SDS011;61501;43.316;5.372;2022-07-29T03:23:44;4.15;;;2.47;;
73276;SDS011;61501;43.316;5.372;2022-07-29T03:26:11;4.78;;;2.75;;
73276;SDS011;61501;43.316;5.372;2022-07-29T03:28:37;6.13;;;2.80;;
73276;SDS011;61501;43.316;5.372;2022-07-29T03:31:03;4.97;;;2.80;;
73276;SDS011;61501;43.316;5.372;2022-07-29T03:33:29;4.70;;;2.65;;
73276;SDS011;61501;43.316;5.372;2022-07-29T03:35:55;4.13;;;2.42;;
73276;SDS011;61501;43.316;5.372;2022-07-29T03:38:23;4.60;;;2.28;;
73276;SDS011;61501;43.316;5.372;2022-07-29T03:40:51;8.45;;;2.67;;
73276;SDS011;61501;43.316;5.372;2022-07-29T03:43:19;6.00;;;2.50;;
73276;SDS011;61501;43.316;5.372;2022-07-29T03:45:50;4.95;;;2.63;;
73276;SDS011;61501;43.316;5.372;2022-07-29T03:48:19;5.82;;;2.75;;
73276;SDS011;61501;43.316;5.372;2022-07-29T03:50:47;4.15;;;2.35;;
73276;SDS011;61501;43.316;5.372;2022-07-29T03:53:15;6.15;;;3.03;;
73276;SDS011;61501;43.316;5.372;2022-07-29T03:55:42;5.72;;;2.55;;
73276;SDS011;61501;43.316;5.372;2022-07-29T03:58:11;5.15;;;2.35;;
73276;SDS011;61501;43.316;5.372;2022-07-29T04:00:38;5.63;;;2.67;;
73276;SDS011;61501;43.316;5.372;2022-07-29T04:03:05;5.30;;;2.60;;
73276;SDS011;61501;43.316;5.372;2022-07-29T04:05:31;4.82;;;2.40;;
73276;SDS011;61501;43.316;5.372;2022-07-29T04:07:57;6.40;;;2.50;;
73276;SDS011;61501;43.316;5.372;2022-07-29T04:10:23;3.85;;;2.55;;
73276;SDS011;61501;43.316;5.372;2022-07-29T04:12:49;8.63;;;2.63;;
73276;SDS011;61501;43.316;5.372;2022-07-29T04:15:15;8.48;;;2.70;;
73276;SDS011;61501;43.316;5.372;2022-07-29T04:17:40;6.72;;;2.42;;
73276;SDS011;61501;43.316;5.372;2022-07-29T04:20:06;4.35;;;2.60;;
73276;SDS011;61501;43.316;5.372;2022-07-29T04:22:32;5.22;;;2.58;;
73276;SDS011;61501;43.316;5.372;2022-07-29T04:24:58;7.32;;;3.13;;
73276;SDS011;61501;43.316;5.372;2022-07-29T04:27:24;6.32;;;3.30;;
73276;SDS011;61501;43.316;5.372;2022-07-29T04:29:50;6.53;;;2.63;;
73276;SDS011;61501;43.316;5.372;2022-07-29T04:32:16;5.82;;;2.83;;
73276;SDS011;61501;43.316;5.372;2022-07-29T04:34:41;5.07;;;2.75;;
73276;SDS011;61501;43.316;5.372;2022-07-29T04:37:07;8.48;;;2.70;;
73276;SDS011;61501;43.316;5.372;2022-07-29T04:39:33;5.43;;;3.35;;
73276;SDS011;61501;43.316;5.372;2022-07-29T04:41:58;4.97;;;2.97;;
73276;SDS011;61501;43.316;5.372;2022-07-29T04:44:24;9.18;;;3.30;;
73276;SDS011;61501;43.316;5.372;2022-07-29T04:46:49;8.82;;;3.22;;
73276;SDS011;61501;43.316;5.372;2022-07-29T04:49:15;8.30;;;3.13;;
73276;SDS011;61501;43.316;5.372;2022-07-29T04:51:41;5.30;;;3.00;;
73276;SDS011;61501;43.316;5.372;2022-07-29T04:54:06;9.52;;;3.30;;
73276;SDS011;61501;43.316;5.372;2022-07-29T04:56:32;8.60;;;3.53;;
73276;SDS011;61501;43.316;5.372;2022-07-29T04:58:58;9.25;;;3.40;;
73276;SDS011;61501;43.316;5.372;2022-07-29T05:01:23;4.93;;;2.95;;
73276;SDS011;61501;43.316;5.372;2022-07-29T05:03:49;9.25;;;2.97;;
73276;SDS011;61501;43.316;5.372;2022-07-29T05:06:14;7.43;;;2.83;;
73276;SDS011;61501;43.316;5.372;2022-07-29T05:08:40;9.43;;;3.13;;
73276;SDS011;61501;43.316;5.372;2022-07-29T05:11:06;6.28;;;2.97;;
73276;SDS011;61501;43.316;5.372;2022-07-29T05:13:31;7.43;;;2.60;;
73276;SDS011;61501;43.316;5.372;2022-07-29T05:15:57;5.82;;;3.10;;
73276;SDS011;61501;43.316;5.372;2022-07-29T05:18:25;9.63;;;3.15;;
73276;SDS011;61501;43.316;5.372;2022-07-29T05:20:51;6.82;;;2.70;;
73276;SDS011;61501;43.316;5.372;2022-07-29T05:23:16;11.25;;;3.17;;
73276;SDS011;61501;43.316;5.372;2022-07-29T05:25:42;7.95;;;3.25;;
73276;SDS011;61501;43.316;5.372;2022-07-29T05:28:08;9.63;;;3.42;;
73276;SDS011;61501;43.316;5.372;2022-07-29T05:30:33;10.30;;;3.30;;
73276;SDS011;61501;43.316;5.372;2022-07-29T05:32:59;11.20;;;3.00;;
73276;SDS011;61501;43.316;5.372;2022-07-29T05:35:25;6.88;;;3.05;;
73276;SDS011;61501;43.316;5.372;2022-07-29T05:37:50;13.70;;;3.92;;
73276;SDS011;61501;43.316;5.372;2022-07-29T05:40:16;25.52;;;3.80;;
73276;SDS011;61501;43.316;5.372;2022-07-29T05:42:42;8.60;;;3.08;;
73276;SDS011;61501;43.316;5.372;2022-07-29T05:45:07;15.35;;;3.85;;
73276;SDS011;61501;43.316;5.372;2022-07-29T05:47:34;13.52;;;3.45;;
73276;SDS011;61501;43.316;5.372;2022-07-29T05:49:59;12.88;;;3.30;;
73276;SDS011;61501;43.316;5.372;2022-07-29T05:52:25;11.25;;;3.35;;
73276;SDS011;61501;43.316;5.372;2022-07-29T05:54:51;11.07;;;3.20;;
73276;SDS011;61501;43.316;5.372;2022-07-29T05:57:17;7.68;;;3.50;;
73276;SDS011;61501;43.316;5.372;2022-07-29T05:59:44;8.43;;;3.38;;
73276;SDS011;61501;43.316;5.372;2022-07-29T06:02:10;11.35;;;3.22;;
73276;SDS011;61501;43.316;5.372;2022-07-29T06:04:36;11.57;;;3.50;;
73276;SDS011;61501;43.316;5.372;2022-07-29T06:07:02;10.70;;;3.50;;
73276;SDS011;61501;43.316;5.372;2022-07-29T06:09:28;11.40;;;3.42;;
73276;SDS011;61501;43.316;5.372;2022-07-29T06:11:54;9.90;;;3.10;;
73276;SDS011;61501;43.316;5.372;2022-07-29T06:14:20;10.00;;;3.67;;
73276;SDS011;61501;43.316;5.372;2022-07-29T06:16:45;10.68;;;3.28;;
73276;SDS011;61501;43.316;5.372;2022-07-29T06:19:11;9.80;;;4.30;;
73276;SDS011;61501;43.316;5.372;2022-07-29T06:21:40;9.73;;;4.32;;
73276;SDS011;61501;43.316;5.372;2022-07-29T06:24:07;8.80;;;3.67;;
73276;SDS011;61501;43.316;5.372;2022-07-29T06:26:33;12.55;;;3.70;;
73276;SDS011;61501;43.316;5.372;2022-07-29T06:28:59;10.15;;;3.45;;
73276;SDS011;61501;43.316;5.372;2022-07-29T06:31:24;11.50;;;3.67;;
73276;SDS011;61501;43.316;5.372;2022-07-29T06:33:50;11.10;;;3.20;;
73276;SDS011;61501;43.316;5.372;2022-07-29T06:36:15;14.27;;;3.75;;
73276;SDS011;61501;43.316;5.372;2022-07-29T06:38:41;9.77;;;3.65;;
73276;SDS011;61501;43.316;5.372;2022-07-29T06:41:08;9.45;;;3.15;;
73276;SDS011;61501;43.316;5.372;2022-07-29T06:43:40;16.65;;;3.53;;
73276;SDS011;61501;43.316;5.372;2022-07-29T06:46:08;8.85;;;3.65;;
73276;SDS011;61501;43.316;5.372;2022-07-29T06:48:36;12.27;;;3.47;;
73276;SDS011;61501;43.316;5.372;2022-07-29T06:51:03;7.95;;;3.22;;
73276;SDS011;61501;43.316;5.372;2022-07-29T06:53:29;7.78;;;3.63;;
73276;SDS011;61501;43.316;5.372;2022-07-29T06:55:56;7.82;;;3.25;;
73276;SDS011;61501;43.316;5.372;2022-07-29T06:58:23;13.15;;;4.65;;
73276;SDS011;61501;43.316;5.372;2022-07-29T07:00:49;12.60;;;3.10;;
73276;SDS011;61501;43.316;5.372;2022-07-29T07:03:15;13.95;;;3.40;;
73276;SDS011;61501;43.316;5.372;2022-07-29T07:05:41;16.90;;;3.97;;
73276;SDS011;61501;43.316;5.372;2022-07-29T07:08:07;9.10;;;4.03;;
73276;SDS011;61501;43.316;5.372;2022-07-29T07:10:33;15.15;;;4.03;;
73276;SDS011;61501;43.316;5.372;2022-07-29T07:12:59;18.95;;;4.72;;
73276;SDS011;61501;43.316;5.372;2022-07-29T07:15:26;16.40;;;4.85;;
73276;SDS011;61501;43.316;5.372;2022-07-29T07:17:52;17.10;;;4.55;;
73276;SDS011;61501;43.316;5.372;2022-07-29T07:20:17;14.13;;;4.50;;
73276;SDS011;61501;43.316;5.372;2022-07-29T07:22:43;11.35;;;4.63;;
73276;SDS011;61501;43.316;5.372;2022-07-29T07:25:10;17.00;;;5.00;;
73276;SDS011;61501;43.316;5.372;2022-07-29T07:27:36;13.93;;;5.07;;
73276;SDS011;61501;43.316;5.372;2022-07-29T07:30:05;16.13;;;4.85;;
73276;SDS011;61501;43.316;5.372;2022-07-29T07:32:32;16.77;;;4.35;;
73276;SDS011;61501;43.316;5.372;2022-07-29T07:34:58;10.77;;;4.75;;
73276;SDS011;61501;43.316;5.372;2022-07-29T07:37:24;10.00;;;4.43;;
73276;SDS011;61501;43.316;5.372;2022-07-29T07:39:50;11.73;;;4.70;;
73276;SDS011;61501;43.316;5.372;2022-07-29T07:42:16;14.38;;;4.22;;
73276;SDS011;61501;43.316;5.372;2022-07-29T07:44:42;8.15;;;3.17;;
73276;SDS011;61501;43.316;5.372;2022-07-29T07:47:08;7.28;;;3.60;;
73276;SDS011;61501;43.316;5.372;2022-07-29T07:49:34;12.80;;;4.25;;
73276;SDS011;61501;43.316;5.372;2022-07-29T07:51:59;11.20;;;3.53;;
73276;SDS011;61501;43.316;5.372;2022-07-29T07:54:25;8.93;;;3.65;;
73276;SDS011;61501;43.316;5.372;2022-07-29T07:56:51;9.23;;;3.83;;
73276;SDS011;61501;43.316;5.372;2022-07-29T07:59:16;6.70;;;3.25;;
73276;SDS011;61501;43.316;5.372;2022-07-29T08:01:42;7.13;;;3.13;;
73276;SDS011;61501;43.316;5.372;2022-07-29T08:04:08;10.23;;;3.30;;
73276;SDS011;61501;43.316;5.372;2022-07-29T08:06:34;7.43;;;3.72;;
73276;SDS011;61501;43.316;5.372;2022-07-29T08:09:01;12.68;;;3.47;;
73276;SDS011;61501;43.316;5.372;2022-07-29T08:11:27;9.93;;;3.45;;
73276;SDS011;61501;43.316;5.372;2022-07-29T08:13:53;17.42;;;3.22;;
73276;SDS011;61501;43.316;5.372;2022-07-29T08:16:19;12.43;;;3.20;;
73276;SDS011;61501;43.316;5.372;2022-07-29T08:18:45;17.58;;;3.42;;
73276;SDS011;61501;43.316;5.372;2022-07-29T08:21:12;16.25;;;3.72;;
73276;SDS011;61501;43.316;5.372;2022-07-29T08:23:38;14.85;;;3.65;;
73276;SDS011;61501;43.316;5.372;2022-07-29T08:26:07;16.48;;;4.05;;
73276;SDS011;61501;43.316;5.372;2022-07-29T08:28:37;14.02;;;3.92;;
73276;SDS011;61501;43.316;5.372;2022-07-29T08:31:03;15.68;;;4.18;;
73276;SDS011;61501;43.316;5.372;2022-07-29T08:33:29;8.55;;;3.50;;
73276;SDS011;61501;43.316;5.372;2022-07-29T08:35:55;10.95;;;3.45;;
73276;SDS011;61501;43.316;5.372;2022-07-29T08:38:20;22.13;;;4.07;;
73276;SDS011;61501;43.316;5.372;2022-07-29T08:40:46;15.85;;;3.72;;
73276;SDS011;61501;43.316;5.372;2022-07-29T08:43:12;10.05;;;3.83;;
73276;SDS011;61501;43.316;5.372;2022-07-29T08:45:45;8.93;;;4.40;;
73276;SDS011;61501;43.316;5.372;2022-07-29T08:48:16;9.07;;;3.40;;
73276;SDS011;61501;43.316;5.372;2022-07-29T08:50:47;9.40;;;3.38;;
73276;SDS011;61501;43.316;5.372;2022-07-29T08:53:15;9.98;;;3.20;;
73276;SDS011;61501;43.316;5.372;2022-07-29T08:55:42;6.78;;;2.92;;
73276;SDS011;61501;43.316;5.372;2022-07-29T08:58:10;7.57;;;3.03;;
73276;SDS011;61501;43.316;5.372;2022-07-29T09:00:37;12.63;;;4.07;;
73276;SDS011;61501;43.316;5.372;2022-07-29T09:03:06;19.98;;;4.18;;
73276;SDS011;61501;43.316;5.372;2022-07-29T09:05:34;8.55;;;3.65;;
73276;SDS011;61501;43.316;5.372;2022-07-29T09:08:00;12.93;;;3.97;;
73276;SDS011;61501;43.316;5.372;2022-07-29T09:10:26;10.23;;;3.63;;
73276;SDS011;61501;43.316;5.372;2022-07-29T09:12:54;7.70;;;3.90;;
73276;SDS011;61501;43.316;5.372;2022-07-29T09:15:20;11.18;;;4.05;;
73276;SDS011;61501;43.316;5.372;2022-07-29T09:17:47;6.20;;;3.97;;
73276;SDS011;61501;43.316;5.372;2022-07-29T09:20:15;9.57;;;3.55;;
73276;SDS011;61501;43.316;5.372;2022-07-29T09:22:42;11.50;;;3.55;;
73276;SDS011;61501;43.316;5.372;2022-07-29T09:25:08;7.82;;;4.13;;
73276;SDS011;61501;43.316;5.372;2022-07-29T09:27:36;7.93;;;3.90;;
73276;SDS011;61501;43.316;5.372;2022-07-29T09:30:06;10.73;;;4.00;;
73276;SDS011;61501;43.316;5.372;2022-07-29T09:32:55;7.50;;;3.70;;
73276;SDS011;61501;43.316;5.372;2022-07-29T09:35:23;11.18;;;4.38;;
73276;SDS011;61501;43.316;5.372;2022-07-29T09:37:53;10.48;;;4.20;;
73276;SDS011;61501;43.316;5.372;2022-07-29T09:40:21;11.07;;;4.80;;
73276;SDS011;61501;43.316;5.372;2022-07-29T09:42:51;6.03;;;4.00;;
73276;SDS011;61501;43.316;5.372;2022-07-29T09:45:30;10.65;;;3.78;;
73276;SDS011;61501;43.316;5.372;2022-07-29T09:51:03;11.23;;;4.60;;
73276;SDS011;61501;43.316;5.372;2022-07-29T09:56:00;12.40;;;4.15;;
73276;SDS011;61501;43.316;5.372;2022-07-29T09:58:26;7.18;;;4.40;;
73276;SDS011;61501;43.316;5.372;2022-07-29T10:00:52;12.23;;;4.10;;
73276;SDS011;61501;43.316;5.372;2022-07-29T10:03:20;9.60;;;3.53;;
73276;SDS011;61501;43.316;5.372;2022-07-29T10:05:46;9.45;;;4.30;;
73276;SDS011;61501;43.316;5.372;2022-07-29T10:08:28;9.90;;;4.78;;
73276;SDS011;61501;43.316;5.372;2022-07-29T10:11:03;21.75;;;4.97;;
73276;SDS011;61501;43.316;5.372;2022-07-29T10:13:37;17.48;;;4.93;;
73276;SDS011;61501;43.316;5.372;2022-07-29T10:16:04;15.77;;;5.10;;
73276;SDS011;61501;43.316;5.372;2022-07-29T10:18:30;13.32;;;5.65;;
73276;SDS011;61501;43.316;5.372;2022-07-29T10:20:57;13.80;;;5.03;;
73276;SDS011;61501;43.316;5.372;2022-07-29T10:23:26;9.18;;;4.97;;
73276;SDS011;61501;43.316;5.372;2022-07-29T10:25:55;10.05;;;4.85;;
73276;SDS011;61501;43.316;5.372;2022-07-29T10:28:20;16.02;;;5.90;;
73276;SDS011;61501;43.316;5.372;2022-07-29T10:30:46;10.25;;;4.65;;
73276;SDS011;61501;43.316;5.372;2022-07-29T10:33:24;6.50;;;4.47;;
73276;SDS011;61501;43.316;5.372;2022-07-29T10:36:19;10.27;;;4.30;;
73276;SDS011;61501;43.316;5.372;2022-07-29T10:44:21;9.05;;;4.43;;
73276;SDS011;61501;43.316;5.372;2022-07-29T10:46:49;11.73;;;3.85;;
73276;SDS011;61501;43.316;5.372;2022-07-29T10:49:19;9.50;;;5.28;;
73276;SDS011;61501;43.316;5.372;2022-07-29T10:54:48;15.00;;;5.00;;
73276;SDS011;61501;43.316;5.372;2022-07-29T11:05:06;12.43;;;4.97;;
73276;SDS011;61501;43.316;5.372;2022-07-29T11:10:37;6.45;;;4.40;;
73276;SDS011;61501;43.316;5.372;2022-07-29T11:13:03;9.25;;;3.63;;
73276;SDS011;61501;43.316;5.372;2022-07-29T11:15:29;12.95;;;4.47;;
73276;SDS011;61501;43.316;5.372;2022-07-29T11:18:14;8.95;;;3.63;;
73276;SDS011;61501;43.316;5.372;2022-07-29T11:23:20;10.73;;;4.07;;
73276;SDS011;61501;43.316;5.372;2022-07-29T11:31:34;10.38;;;4.28;;
73276;SDS011;61501;43.316;5.372;2022-07-29T11:39:39;14.55;;;4.75;;
73276;SDS011;61501;43.316;5.372;2022-07-29T11:47:31;9.35;;;4.50;;
73276;SDS011;61501;43.316;5.372;2022-07-29T11:49:59;9.93;;;4.18;;
73276;SDS011;61501;43.316;5.372;2022-07-29T11:52:33;14.30;;;4.32;;
73276;SDS011;61501;43.316;5.372;2022-07-29T11:55:18;16.13;;;4.82;;
73276;SDS011;61501;43.316;5.372;2022-07-29T12:00:30;9.93;;;4.13;;
73276;SDS011;61501;43.316;5.372;2022-07-29T12:02:58;9.95;;;3.85;;
73276;SDS011;61501;43.316;5.372;2022-07-29T12:05:42;5.43;;;3.50;;
73276;SDS011;61501;43.316;5.372;2022-07-29T12:08:13;20.25;;;5.28;;
73276;SDS011;61501;43.316;5.372;2022-07-29T12:10:43;11.18;;;4.30;;
73276;SDS011;61501;43.316;5.372;2022-07-29T12:13:11;16.45;;;4.65;;
73276;SDS011;61501;43.316;5.372;2022-07-29T12:15:37;8.88;;;4.88;;
73276;SDS011;61501;43.316;5.372;2022-07-29T12:18:13;15.38;;;4.40;;
73276;SDS011;61501;43.316;5.372;2022-07-29T12:20:41;13.82;;;5.90;;
73276;SDS011;61501;43.316;5.372;2022-07-29T12:23:08;10.82;;;4.47;;
73276;SDS011;61501;43.316;5.372;2022-07-29T12:25:36;6.70;;;4.07;;
73276;SDS011;61501;43.316;5.372;2022-07-29T12:28:04;8.95;;;3.72;;
73276;SDS011;61501;43.316;5.372;2022-07-29T12:30:52;9.68;;;3.65;;
73276;SDS011;61501;43.316;5.372;2022-07-29T12:33:24;7.28;;;3.78;;
73276;SDS011;61501;43.316;5.372;2022-07-29T12:35:58;6.28;;;3.97;;
73276;SDS011;61501;43.316;5.372;2022-07-29T12:38:26;6.82;;;4.00;;
73276;SDS011;61501;43.316;5.372;2022-07-29T12:40:53;10.55;;;4.30;;
73276;SDS011;61501;43.316;5.372;2022-07-29T12:43:20;8.98;;;4.20;;
73276;SDS011;61501;43.316;5.372;2022-07-29T12:45:52;8.25;;;3.97;;
73276;SDS011;61501;43.316;5.372;2022-07-29T12:48:38;11.77;;;3.35;;
73276;SDS011;61501;43.316;5.372;2022-07-29T12:51:05;8.88;;;3.05;;
73276;SDS011;61501;43.316;5.372;2022-07-29T12:53:32;4.65;;;2.80;;
73276;SDS011;61501;43.316;5.372;2022-07-29T12:55:58;6.40;;;2.80;;
73276;SDS011;61501;43.316;5.372;2022-07-29T12:58:27;4.47;;;2.53;;
73276;SDS011;61501;43.316;5.372;2022-07-29T13:01:01;5.72;;;2.60;;
73276;SDS011;61501;43.316;5.372;2022-07-29T13:03:27;5.45;;;2.58;;
73276;SDS011;61501;43.316;5.372;2022-07-29T13:05:53;3.08;;;2.53;;
73276;SDS011;61501;43.316;5.372;2022-07-29T13:08:18;5.18;;;2.17;;
73276;SDS011;61501;43.316;5.372;2022-07-29T13:10:44;7.65;;;2.58;;
73276;SDS011;61501;43.316;5.372;2022-07-29T13:13:11;5.30;;;2.95;;
73276;SDS011;61501;43.316;5.372;2022-07-29T13:15:39;5.18;;;2.80;;
73276;SDS011;61501;43.316;5.372;2022-07-29T13:20:54;4.85;;;2.70;;
73276;SDS011;61501;43.316;5.372;2022-07-29T13:23:20;7.47;;;2.90;;
73276;SDS011;61501;43.316;5.372;2022-07-29T13:25:45;5.88;;;2.90;;
73276;SDS011;61501;43.316;5.372;2022-07-29T13:28:11;6.57;;;2.70;;
73276;SDS011;61501;43.316;5.372;2022-07-29T13:30:39;5.75;;;2.50;;
73276;SDS011;61501;43.316;5.372;2022-07-29T13:33:08;4.72;;;2.75;;
73276;SDS011;61501;43.316;5.372;2022-07-29T13:35:34;4.82;;;2.75;;
73276;SDS011;61501;43.316;5.372;2022-07-29T13:37:59;3.58;;;2.67;;
73276;SDS011;61501;43.316;5.372;2022-07-29T13:40:25;6.07;;;2.50;;
73276;SDS011;61501;43.316;5.372;2022-07-29T13:42:51;3.88;;;2.42;;
73276;SDS011;61501;43.316;5.372;2022-07-29T13:45:16;5.32;;;2.95;;
73276;SDS011;61501;43.316;5.372;2022-07-29T13:47:42;5.18;;;2.80;;
73276;SDS011;61501;43.316;5.372;2022-07-29T13:50:08;4.00;;;2.72;;
73276;SDS011;61501;43.316;5.372;2022-07-29T13:52:35;4.68;;;2.78;;
73276;SDS011;61501;43.316;5.372;2022-07-29T13:55:02;4.60;;;3.20;;
73276;SDS011;61501;43.316;5.372;2022-07-29T13:57:28;4.00;;;3.15;;
73276;SDS011;61501;43.316;5.372;2022-07-29T13:59:54;5.45;;;3.00;;
73276;SDS011;61501;43.316;5.372;2022-07-29T14:02:21;4.50;;;2.95;;
73276;SDS011;61501;43.316;5.372;2022-07-29T14:04:46;5.63;;;3.22;;
73276;SDS011;61501;43.316;5.372;2022-07-29T14:07:12;6.05;;;3.38;;
73276;SDS011;61501;43.316;5.372;2022-07-29T14:09:38;4.60;;;3.40;;
73276;SDS011;61501;43.316;5.372;2022-07-29T14:12:04;5.57;;;3.22;;
73276;SDS011;61501;43.316;5.372;2022-07-29T14:14:29;4.57;;;3.28;;
73276;SDS011;61501;43.316;5.372;2022-07-29T14:16:57;6.45;;;3.40;;
73276;SDS011;61501;43.316;5.372;2022-07-29T14:19:23;5.07;;;2.95;;
73276;SDS011;61501;43.316;5.372;2022-07-29T14:21:48;5.80;;;3.30;;
73276;SDS011;61501;43.316;5.372;2022-07-29T14:24:14;5.15;;;3.25;;
73276;SDS011;61501;43.316;5.372;2022-07-29T14:26:40;6.53;;;3.45;;
73276;SDS011;61501;43.316;5.372;2022-07-29T14:29:05;3.70;;;2.85;;
73276;SDS011;61501;43.316;5.372;2022-07-29T14:31:32;3.90;;;2.92;;
73276;SDS011;61501;43.316;5.372;2022-07-29T14:33:57;5.30;;;2.55;;
73276;SDS011;61501;43.316;5.372;2022-07-29T14:36:23;4.65;;;2.40;;
73276;SDS011;61501;43.316;5.372;2022-07-29T14:38:49;5.00;;;2.30;;
73276;SDS011;61501;43.316;5.372;2022-07-29T14:41:15;3.42;;;2.45;;
73276;SDS011;61501;43.316;5.372;2022-07-29T14:43:40;5.45;;;2.80;;
73276;SDS011;61501;43.316;5.372;2022-07-29T14:46:06;4.43;;;2.67;;
73276;SDS011;61501;43.316;5.372;2022-07-29T14:48:35;4.45;;;2.40;;
73276;SDS011;61501;43.316;5.372;2022-07-29T14:51:01;6.60;;;2.30;;
73276;SDS011;61501;43.316;5.372;2022-07-29T14:53:27;3.58;;;2.00;;
73276;SDS011;61501;43.316;5.372;2022-07-29T14:55:53;4.55;;;2.30;;
73276;SDS011;61501;43.316;5.372;2022-07-29T14:58:19;4.63;;;2.45;;
73276;SDS011;61501;43.316;5.372;2022-07-29T15:00:47;3.60;;;2.15;;
73276;SDS011;61501;43.316;5.372;2022-07-29T15:03:12;3.83;;;2.60;;
73276;SDS011;61501;43.316;5.372;2022-07-29T15:05:38;3.72;;;2.15;;
73276;SDS011;61501;43.316;5.372;2022-07-29T15:08:04;2.75;;;2.38;;
73276;SDS011;61501;43.316;5.372;2022-07-29T15:10:30;4.00;;;2.33;;
73276;SDS011;61501;43.316;5.372;2022-07-29T15:12:56;5.20;;;3.15;;
73276;SDS011;61501;43.316;5.372;2022-07-29T15:15:22;4.45;;;2.92;;
73276;SDS011;61501;43.316;5.372;2022-07-29T15:17:47;6.53;;;3.78;;
73276;SDS011;61501;43.316;5.372;2022-07-29T15:20:13;3.70;;;3.33;;
73276;SDS011;61501;43.316;5.372;2022-07-29T15:22:39;6.28;;;2.97;;
73276;SDS011;61501;43.316;5.372;2022-07-29T15:25:07;5.82;;;2.92;;
73276;SDS011;61501;43.316;5.372;2022-07-29T15:27:32;4.13;;;3.00;;
73276;SDS011;61501;43.316;5.372;2022-07-29T15:29:58;6.22;;;2.88;;
73276;SDS011;61501;43.316;5.372;2022-07-29T15:32:24;4.50;;;2.80;;
73276;SDS011;61501;43.316;5.372;2022-07-29T15:34:50;5.20;;;2.38;;
73276;SDS011;61501;43.316;5.372;2022-07-29T15:37:16;4.22;;;2.45;;
73276;SDS011;61501;43.316;5.372;2022-07-29T15:39:41;6.95;;;2.50;;
73276;SDS011;61501;43.316;5.372;2022-07-29T15:42:07;6.10;;;2.90;;
73276;SDS011;61501;43.316;5.372;2022-07-29T15:44:33;6.75;;;2.67;;
73276;SDS011;61501;43.316;5.372;2022-07-29T15:46:59;6.93;;;1.98;;
73276;SDS011;61501;43.316;5.372;2022-07-29T15:49:28;6.07;;;2.63;;
73276;SDS011;61501;43.316;5.372;2022-07-29T15:52:05;5.97;;;3.28;;